sensor_id;sensor_type;location;lat;lon;timestamp;P1;durP1;ratioP1;P2;durP2;ratioP2
63046;SDS011;62025;39.238;9.126;2022-11-15T00:02:29;2.20;;;2.00;;
63046;SDS011;62025;39.238;9.126;2022-11-15T00:05:13;3.03;;;2.00;;
63046;SDS011;62025;39.238;9.126;2022-11-15T00:07:58;2.30;;;2.08;;
63046;SDS011;62025;39.238;9.126;2022-11-15T00:10:42;2.33;;;1.90;;
63046;SDS011;62025;39.238;9.126;2022-11-15T00:13:38;3.47;;;2.00;;
63046;SDS011;62025;39.238;9.126;2022-11-15T00:16:23;3.00;;;1.90;;
63046;SDS011;62025;39.238;9.126;2022-11-15T00:19:08;3.28;;;1.70;;
63046;SDS011;62025;39.238;9.126;2022-11-15T00:21:53;2.95;;;1.70;;
63046;SDS011;62025;39.238;9.126;2022-11-15T00:24:37;1.80;;;1.67;;
63046;SDS011;62025;39.238;9.126;2022-11-15T00:27:22;3.97;;;1.63;;
63046;SDS011;62025;39.238;9.126;2022-11-15T00:30:06;2.95;;;1.60;;
63046;SDS011;62025;39.238;9.126;2022-11-15T00:32:51;2.90;;;1.65;;
63046;SDS011;62025;39.238;9.126;2022-11-15T00:35:36;3.03;;;1.73;;
63046;SDS011;62025;39.238;9.126;2022-11-15T00:38:21;2.78;;;1.83;;
63046;SDS011;62025;39.238;9.126;2022-11-15T00:41:06;2.22;;;1.77;;
63046;SDS011;62025;39.238;9.126;2022-11-15T00:43:51;5.68;;;2.00;;
63046;SDS011;62025;39.238;9.126;2022-11-15T00:46:36;2.55;;;1.70;;
63046;SDS011;62025;39.238;9.126;2022-11-15T00:49:21;2.17;;;1.75;;
63046;SDS011;62025;39.238;9.126;2022-11-15T00:52:05;2.17;;;1.73;;
63046;SDS011;62025;39.238;9.126;2022-11-15T00:54:50;1.80;;;1.60;;
63046;SDS011;62025;39.238;9.126;2022-11-15T00:57:34;5.03;;;1.80;;
63046;SDS011;62025;39.238;9.126;2022-11-15T01:00:20;3.35;;;1.80;;
63046;SDS011;62025;39.238;9.126;2022-11-15T01:03:04;3.17;;;1.90;;
63046;SDS011;62025;39.238;9.126;2022-11-15T01:05:49;3.58;;;1.70;;
63046;SDS011;62025;39.238;9.126;2022-11-15T01:08:34;2.35;;;1.60;;
63046;SDS011;62025;39.238;9.126;2022-11-15T01:11:19;2.67;;;1.73;;
63046;SDS011;62025;39.238;9.126;2022-11-15T01:14:04;2.97;;;1.80;;
63046;SDS011;62025;39.238;9.126;2022-11-15T01:16:48;1.95;;;1.73;;
63046;SDS011;62025;39.238;9.126;2022-11-15T01:19:33;3.13;;;1.70;;
63046;SDS011;62025;39.238;9.126;2022-11-15T01:22:17;2.42;;;1.50;;
63046;SDS011;62025;39.238;9.126;2022-11-15T01:25:02;3.92;;;2.35;;
63046;SDS011;62025;39.238;9.126;2022-11-15T01:27:47;1.50;;;1.30;;
63046;SDS011;62025;39.238;9.126;2022-11-15T01:30:32;1.48;;;1.35;;
63046;SDS011;62025;39.238;9.126;2022-11-15T01:33:17;2.47;;;1.50;;
63046;SDS011;62025;39.238;9.126;2022-11-15T01:36:09;1.95;;;1.75;;
63046;SDS011;62025;39.238;9.126;2022-11-15T01:38:59;2.78;;;1.60;;
63046;SDS011;62025;39.238;9.126;2022-11-15T01:41:44;2.50;;;1.60;;
63046;SDS011;62025;39.238;9.126;2022-11-15T01:47:37;2.22;;;1.63;;
63046;SDS011;62025;39.238;9.126;2022-11-15T01:50:29;2.65;;;1.73;;
63046;SDS011;62025;39.238;9.126;2022-11-15T01:53:15;2.17;;;1.58;;
63046;SDS011;62025;39.238;9.126;2022-11-15T01:56:03;2.00;;;1.70;;
63046;SDS011;62025;39.238;9.126;2022-11-15T01:58:50;2.22;;;1.70;;
63046;SDS011;62025;39.238;9.126;2022-11-15T02:01:38;4.97;;;1.70;;
63046;SDS011;62025;39.238;9.126;2022-11-15T02:04:25;2.30;;;1.58;;
63046;SDS011;62025;39.238;9.126;2022-11-15T02:07:13;1.70;;;1.52;;
63046;SDS011;62025;39.238;9.126;2022-11-15T02:10:11;2.70;;;1.65;;
63046;SDS011;62025;39.238;9.126;2022-11-15T02:13:04;3.72;;;1.80;;
63046;SDS011;62025;39.238;9.126;2022-11-15T02:15:58;5.47;;;1.60;;
63046;SDS011;62025;39.238;9.126;2022-11-15T02:19:08;4.30;;;1.67;;
63046;SDS011;62025;39.238;9.126;2022-11-15T02:28:47;2.20;;;1.60;;
63046;SDS011;62025;39.238;9.126;2022-11-15T02:34:53;3.00;;;1.60;;
63046;SDS011;62025;39.238;9.126;2022-11-15T02:41:02;2.42;;;1.50;;
63046;SDS011;62025;39.238;9.126;2022-11-15T02:43:59;1.95;;;1.50;;
63046;SDS011;62025;39.238;9.126;2022-11-15T02:46:49;2.38;;;1.75;;
63046;SDS011;62025;39.238;9.126;2022-11-15T02:49:58;1.92;;;1.67;;
63046;SDS011;62025;39.238;9.126;2022-11-15T02:52:50;3.38;;;1.50;;
63046;SDS011;62025;39.238;9.126;2022-11-15T02:55:36;1.63;;;1.40;;
63046;SDS011;62025;39.238;9.126;2022-11-15T03:08:12;1.40;;;1.30;;
63046;SDS011;62025;39.238;9.126;2022-11-15T03:11:41;1.38;;;1.27;;
63046;SDS011;62025;39.238;9.126;2022-11-15T03:14:36;2.40;;;1.40;;
63046;SDS011;62025;39.238;9.126;2022-11-15T03:18:04;1.98;;;1.33;;
63046;SDS011;62025;39.238;9.126;2022-11-15T03:21:17;2.00;;;1.55;;
63046;SDS011;62025;39.238;9.126;2022-11-15T03:24:05;4.10;;;2.25;;
63046;SDS011;62025;39.238;9.126;2022-11-15T03:26:51;1.90;;;1.40;;
63046;SDS011;62025;39.238;9.126;2022-11-15T03:29:39;1.65;;;1.40;;
63046;SDS011;62025;39.238;9.126;2022-11-15T03:32:30;1.67;;;1.55;;
63046;SDS011;62025;39.238;9.126;2022-11-15T03:35:22;1.80;;;1.40;;
63046;SDS011;62025;39.238;9.126;2022-11-15T03:38:24;2.13;;;1.50;;
63046;SDS011;62025;39.238;9.126;2022-11-15T03:41:14;2.08;;;1.50;;
63046;SDS011;62025;39.238;9.126;2022-11-15T03:50:11;1.55;;;1.40;;
63046;SDS011;62025;39.238;9.126;2022-11-15T03:53:03;3.55;;;1.95;;
63046;SDS011;62025;39.238;9.126;2022-11-15T03:55:47;2.50;;;1.33;;
63046;SDS011;62025;39.238;9.126;2022-11-15T03:58:32;2.47;;;1.65;;
63046;SDS011;62025;39.238;9.126;2022-11-15T04:01:17;1.95;;;1.60;;
63046;SDS011;62025;39.238;9.126;2022-11-15T04:04:01;2.65;;;1.52;;
63046;SDS011;62025;39.238;9.126;2022-11-15T04:06:46;2.55;;;1.73;;
63046;SDS011;62025;39.238;9.126;2022-11-15T04:09:31;3.58;;;1.80;;
63046;SDS011;62025;39.238;9.126;2022-11-15T04:12:15;1.60;;;1.50;;
63046;SDS011;62025;39.238;9.126;2022-11-15T04:15:19;2.85;;;1.60;;
63046;SDS011;62025;39.238;9.126;2022-11-15T04:18:06;3.53;;;1.80;;
63046;SDS011;62025;39.238;9.126;2022-11-15T04:20:51;2.90;;;1.80;;
63046;SDS011;62025;39.238;9.126;2022-11-15T04:23:54;3.63;;;1.52;;
63046;SDS011;62025;39.238;9.126;2022-11-15T04:26:38;2.03;;;1.80;;
63046;SDS011;62025;39.238;9.126;2022-11-15T04:29:23;3.30;;;1.90;;
63046;SDS011;62025;39.238;9.126;2022-11-15T04:32:20;4.65;;;1.90;;
63046;SDS011;62025;39.238;9.126;2022-11-15T04:35:05;3.55;;;2.28;;
63046;SDS011;62025;39.238;9.126;2022-11-15T04:37:50;3.92;;;2.20;;
63046;SDS011;62025;39.238;9.126;2022-11-15T04:40:35;3.45;;;2.90;;
63046;SDS011;62025;39.238;9.126;2022-11-15T04:43:21;5.47;;;3.22;;
63046;SDS011;62025;39.238;9.126;2022-11-15T04:46:06;5.05;;;3.58;;
63046;SDS011;62025;39.238;9.126;2022-11-15T04:48:51;6.88;;;4.18;;
63046;SDS011;62025;39.238;9.126;2022-11-15T04:51:36;6.75;;;4.10;;
63046;SDS011;62025;39.238;9.126;2022-11-15T04:54:21;5.68;;;3.83;;
63046;SDS011;62025;39.238;9.126;2022-11-15T04:57:05;7.63;;;4.32;;
63046;SDS011;62025;39.238;9.126;2022-11-15T04:59:50;7.60;;;4.95;;
63046;SDS011;62025;39.238;9.126;2022-11-15T05:02:35;8.63;;;5.18;;
63046;SDS011;62025;39.238;9.126;2022-11-15T05:05:38;7.05;;;5.00;;
63046;SDS011;62025;39.238;9.126;2022-11-15T05:08:23;8.15;;;5.30;;
63046;SDS011;62025;39.238;9.126;2022-11-15T05:11:08;10.65;;;5.22;;
63046;SDS011;62025;39.238;9.126;2022-11-15T05:13:52;9.27;;;5.25;;
63046;SDS011;62025;39.238;9.126;2022-11-15T05:16:37;11.77;;;5.57;;
63046;SDS011;62025;39.238;9.126;2022-11-15T05:19:22;7.45;;;5.03;;
63046;SDS011;62025;39.238;9.126;2022-11-15T05:22:07;8.15;;;4.78;;
63046;SDS011;62025;39.238;9.126;2022-11-15T05:24:51;10.52;;;5.03;;
63046;SDS011;62025;39.238;9.126;2022-11-15T05:27:36;9.23;;;5.10;;
63046;SDS011;62025;39.238;9.126;2022-11-15T05:30:21;8.63;;;4.60;;
63046;SDS011;62025;39.238;9.126;2022-11-15T05:33:05;7.50;;;4.65;;
63046;SDS011;62025;39.238;9.126;2022-11-15T05:35:50;9.68;;;5.00;;
63046;SDS011;62025;39.238;9.126;2022-11-15T05:38:44;6.85;;;4.57;;
63046;SDS011;62025;39.238;9.126;2022-11-15T05:41:32;7.63;;;4.47;;
63046;SDS011;62025;39.238;9.126;2022-11-15T05:44:23;7.25;;;4.25;;
63046;SDS011;62025;39.238;9.126;2022-11-15T05:47:10;4.53;;;4.10;;
63046;SDS011;62025;39.238;9.126;2022-11-15T05:50:07;8.73;;;4.60;;
63046;SDS011;62025;39.238;9.126;2022-11-15T05:52:56;7.85;;;4.15;;
63046;SDS011;62025;39.238;9.126;2022-11-15T05:55:41;5.95;;;4.32;;
63046;SDS011;62025;39.238;9.126;2022-11-15T05:58:25;7.18;;;4.15;;
63046;SDS011;62025;39.238;9.126;2022-11-15T06:01:10;7.05;;;4.10;;
63046;SDS011;62025;39.238;9.126;2022-11-15T06:03:55;6.18;;;4.15;;
63046;SDS011;62025;39.238;9.126;2022-11-15T06:06:40;5.82;;;3.88;;
63046;SDS011;62025;39.238;9.126;2022-11-15T06:09:24;11.77;;;4.38;;
63046;SDS011;62025;39.238;9.126;2022-11-15T06:12:09;7.07;;;4.93;;
63046;SDS011;62025;39.238;9.126;2022-11-15T06:14:54;12.63;;;5.22;;
63046;SDS011;62025;39.238;9.126;2022-11-15T06:17:38;8.40;;;4.80;;
63046;SDS011;62025;39.238;9.126;2022-11-15T06:20:24;6.90;;;4.95;;
63046;SDS011;62025;39.238;9.126;2022-11-15T06:23:09;9.80;;;4.75;;
63046;SDS011;62025;39.238;9.126;2022-11-15T06:25:57;9.75;;;5.00;;
63046;SDS011;62025;39.238;9.126;2022-11-15T06:28:42;13.05;;;6.10;;
63046;SDS011;62025;39.238;9.126;2022-11-15T06:31:27;8.27;;;5.70;;
63046;SDS011;62025;39.238;9.126;2022-11-15T06:34:11;9.18;;;5.63;;
63046;SDS011;62025;39.238;9.126;2022-11-15T06:36:56;9.63;;;5.97;;
63046;SDS011;62025;39.238;9.126;2022-11-15T06:39:41;12.18;;;5.97;;
63046;SDS011;62025;39.238;9.126;2022-11-15T06:42:25;10.88;;;6.28;;
63046;SDS011;62025;39.238;9.126;2022-11-15T06:45:10;9.15;;;5.82;;
63046;SDS011;62025;39.238;9.126;2022-11-15T06:47:54;11.00;;;6.05;;
63046;SDS011;62025;39.238;9.126;2022-11-15T06:50:39;8.93;;;5.88;;
63046;SDS011;62025;39.238;9.126;2022-11-15T06:53:24;14.45;;;5.53;;
63046;SDS011;62025;39.238;9.126;2022-11-15T06:56:09;8.77;;;5.93;;
63046;SDS011;62025;39.238;9.126;2022-11-15T06:58:55;10.55;;;6.00;;
63046;SDS011;62025;39.238;9.126;2022-11-15T07:01:40;10.75;;;5.57;;
63046;SDS011;62025;39.238;9.126;2022-11-15T07:04:24;9.07;;;5.72;;
63046;SDS011;62025;39.238;9.126;2022-11-15T07:07:09;12.52;;;6.40;;
63046;SDS011;62025;39.238;9.126;2022-11-15T07:09:53;10.73;;;6.05;;
63046;SDS011;62025;39.238;9.126;2022-11-15T07:12:38;8.80;;;6.63;;
63046;SDS011;62025;39.238;9.126;2022-11-15T07:15:24;8.52;;;5.82;;
63046;SDS011;62025;39.238;9.126;2022-11-15T07:18:09;11.45;;;6.45;;
63046;SDS011;62025;39.238;9.126;2022-11-15T07:20:54;9.73;;;6.43;;
63046;SDS011;62025;39.238;9.126;2022-11-15T07:23:39;8.73;;;5.85;;
63046;SDS011;62025;39.238;9.126;2022-11-15T07:26:24;8.48;;;5.28;;
63046;SDS011;62025;39.238;9.126;2022-11-15T07:29:08;12.40;;;6.60;;
63046;SDS011;62025;39.238;9.126;2022-11-15T07:31:53;12.48;;;6.38;;
63046;SDS011;62025;39.238;9.126;2022-11-15T07:34:38;17.45;;;6.63;;
63046;SDS011;62025;39.238;9.126;2022-11-15T07:37:23;11.40;;;6.10;;
63046;SDS011;62025;39.238;9.126;2022-11-15T07:40:08;11.45;;;6.63;;
63046;SDS011;62025;39.238;9.126;2022-11-15T07:42:58;9.05;;;6.30;;
63046;SDS011;62025;39.238;9.126;2022-11-15T07:45:48;12.05;;;6.63;;
63046;SDS011;62025;39.238;9.126;2022-11-15T07:48:33;13.25;;;6.60;;
63046;SDS011;62025;39.238;9.126;2022-11-15T07:51:17;13.93;;;6.50;;
63046;SDS011;62025;39.238;9.126;2022-11-15T07:54:02;11.13;;;5.75;;
63046;SDS011;62025;39.238;9.126;2022-11-15T07:56:46;9.93;;;6.10;;
63046;SDS011;62025;39.238;9.126;2022-11-15T07:59:31;7.32;;;5.88;;
63046;SDS011;62025;39.238;9.126;2022-11-15T08:02:16;10.68;;;6.22;;
63046;SDS011;62025;39.238;9.126;2022-11-15T08:05:01;11.30;;;5.22;;
63046;SDS011;62025;39.238;9.126;2022-11-15T08:07:46;9.10;;;5.15;;
63046;SDS011;62025;39.238;9.126;2022-11-15T08:10:31;15.23;;;4.93;;
63046;SDS011;62025;39.238;9.126;2022-11-15T08:13:16;9.98;;;5.00;;
63046;SDS011;62025;39.238;9.126;2022-11-15T08:16:01;9.07;;;5.00;;
63046;SDS011;62025;39.238;9.126;2022-11-15T08:18:48;9.82;;;5.82;;
63046;SDS011;62025;39.238;9.126;2022-11-15T08:21:33;10.32;;;5.50;;
63046;SDS011;62025;39.238;9.126;2022-11-15T08:24:18;7.57;;;4.80;;
63046;SDS011;62025;39.238;9.126;2022-11-15T08:27:04;10.25;;;4.97;;
63046;SDS011;62025;39.238;9.126;2022-11-15T08:29:57;12.07;;;4.90;;
63046;SDS011;62025;39.238;9.126;2022-11-15T08:32:43;7.70;;;4.43;;
63046;SDS011;62025;39.238;9.126;2022-11-15T08:35:28;6.43;;;3.80;;
63046;SDS011;62025;39.238;9.126;2022-11-15T08:38:13;8.00;;;3.80;;
63046;SDS011;62025;39.238;9.126;2022-11-15T08:41:01;6.80;;;3.95;;
63046;SDS011;62025;39.238;9.126;2022-11-15T08:43:48;5.88;;;3.75;;
63046;SDS011;62025;39.238;9.126;2022-11-15T08:46:33;4.40;;;3.33;;
63046;SDS011;62025;39.238;9.126;2022-11-15T08:49:17;8.43;;;3.70;;
63046;SDS011;62025;39.238;9.126;2022-11-15T08:52:02;7.25;;;3.92;;
63046;SDS011;62025;39.238;9.126;2022-11-15T08:54:47;9.20;;;4.20;;
63046;SDS011;62025;39.238;9.126;2022-11-15T08:57:32;7.78;;;3.97;;
63046;SDS011;62025;39.238;9.126;2022-11-15T09:00:16;7.93;;;3.80;;
63046;SDS011;62025;39.238;9.126;2022-11-15T09:03:04;8.40;;;4.15;;
63046;SDS011;62025;39.238;9.126;2022-11-15T09:05:54;13.85;;;4.75;;
63046;SDS011;62025;39.238;9.126;2022-11-15T09:08:44;8.15;;;4.00;;
63046;SDS011;62025;39.238;9.126;2022-11-15T09:11:28;10.75;;;4.45;;
63046;SDS011;62025;39.238;9.126;2022-11-15T09:14:13;9.27;;;3.92;;
63046;SDS011;62025;39.238;9.126;2022-11-15T09:16:58;12.43;;;3.88;;
63046;SDS011;62025;39.238;9.126;2022-11-15T09:19:42;6.35;;;3.60;;
63046;SDS011;62025;39.238;9.126;2022-11-15T09:22:27;7.57;;;3.40;;
63046;SDS011;62025;39.238;9.126;2022-11-15T09:25:12;6.43;;;3.65;;
63046;SDS011;62025;39.238;9.126;2022-11-15T09:27:57;11.18;;;3.33;;
63046;SDS011;62025;39.238;9.126;2022-11-15T09:30:42;8.55;;;3.40;;
63046;SDS011;62025;39.238;9.126;2022-11-15T09:33:27;10.10;;;3.10;;
63046;SDS011;62025;39.238;9.126;2022-11-15T09:36:11;6.88;;;2.97;;
63046;SDS011;62025;39.238;9.126;2022-11-15T09:38:59;6.78;;;3.25;;
63046;SDS011;62025;39.238;9.126;2022-11-15T09:41:48;6.65;;;3.65;;
63046;SDS011;62025;39.238;9.126;2022-11-15T09:48:14;14.05;;;4.60;;
63046;SDS011;62025;39.238;9.126;2022-11-15T09:51:50;6.78;;;3.38;;
63046;SDS011;62025;39.238;9.126;2022-11-15T09:54:33;15.05;;;4.28;;
63046;SDS011;62025;39.238;9.126;2022-11-15T09:57:06;6.45;;;3.45;;
63046;SDS011;62025;39.238;9.126;2022-11-15T10:05:03;14.10;;;5.47;;
63046;SDS011;62025;39.238;9.126;2022-11-15T10:10:41;13.85;;;5.10;;
63046;SDS011;62025;39.238;9.126;2022-11-15T10:13:28;17.40;;;4.90;;
63046;SDS011;62025;39.238;9.126;2022-11-15T10:25:00;13.57;;;4.07;;
63046;SDS011;62025;39.238;9.126;2022-11-15T10:27:50;13.60;;;4.05;;
63046;SDS011;62025;39.238;9.126;2022-11-15T10:31:02;8.80;;;4.10;;
63046;SDS011;62025;39.238;9.126;2022-11-15T10:36:46;10.65;;;4.43;;
63046;SDS011;62025;39.238;9.126;2022-11-15T10:39:24;5.60;;;4.18;;
63046;SDS011;62025;39.238;9.126;2022-11-15T10:41:51;8.73;;;4.10;;
63046;SDS011;62025;39.238;9.126;2022-11-15T10:49:24;13.35;;;5.00;;
63046;SDS011;62025;39.238;9.126;2022-11-15T10:51:56;7.90;;;4.40;;
63046;SDS011;62025;39.238;9.126;2022-11-15T10:54:27;7.93;;;4.50;;
63046;SDS011;62025;39.238;9.126;2022-11-15T10:56:56;9.48;;;4.68;;
63046;SDS011;62025;39.238;9.126;2022-11-15T10:59:29;13.52;;;4.72;;
63046;SDS011;62025;39.238;9.126;2022-11-15T11:02:01;7.07;;;4.55;;
63046;SDS011;62025;39.238;9.126;2022-11-15T11:04:27;8.80;;;4.60;;
63046;SDS011;62025;39.238;9.126;2022-11-15T11:06:57;11.20;;;4.85;;
63046;SDS011;62025;39.238;9.126;2022-11-15T11:09:32;10.63;;;5.00;;
63046;SDS011;62025;39.238;9.126;2022-11-15T11:12:01;21.08;;;6.45;;
63046;SDS011;62025;39.238;9.126;2022-11-15T11:33:38;10.70;;;5.00;;
63046;SDS011;62025;39.238;9.126;2022-11-15T11:36:21;13.27;;;5.30;;
63046;SDS011;62025;39.238;9.126;2022-11-15T11:44:18;13.05;;;5.35;;
63046;SDS011;62025;39.238;9.126;2022-11-15T11:50:29;17.02;;;6.13;;
63046;SDS011;62025;39.238;9.126;2022-11-15T11:53:17;10.57;;;5.35;;
63046;SDS011;62025;39.238;9.126;2022-11-15T11:56:09;13.23;;;5.20;;
63046;SDS011;62025;39.238;9.126;2022-11-15T11:59:00;11.23;;;5.30;;
63046;SDS011;62025;39.238;9.126;2022-11-15T12:01:36;10.43;;;5.00;;
63046;SDS011;62025;39.238;9.126;2022-11-15T12:04:42;11.93;;;5.57;;
63046;SDS011;62025;39.238;9.126;2022-11-15T12:18:44;11.23;;;6.03;;
63046;SDS011;62025;39.238;9.126;2022-11-15T12:21:19;12.85;;;6.53;;
63046;SDS011;62025;39.238;9.126;2022-11-15T12:24:06;11.85;;;5.50;;
63046;SDS011;62025;39.238;9.126;2022-11-15T12:26:42;11.13;;;5.65;;
63046;SDS011;62025;39.238;9.126;2022-11-15T12:29:20;11.07;;;5.53;;
63046;SDS011;62025;39.238;9.126;2022-11-15T12:32:04;19.98;;;5.63;;
63046;SDS011;62025;39.238;9.126;2022-11-15T12:35:00;11.10;;;5.78;;
63046;SDS011;62025;39.238;9.126;2022-11-15T12:37:33;13.90;;;5.60;;
63046;SDS011;62025;39.238;9.126;2022-11-15T12:42:38;15.55;;;5.97;;
63046;SDS011;62025;39.238;9.126;2022-11-15T12:58:43;17.35;;;7.45;;
63046;SDS011;62025;39.238;9.126;2022-11-15T13:06:56;15.82;;;7.90;;
63046;SDS011;62025;39.238;9.126;2022-11-15T13:11:59;16.60;;;7.05;;
63046;SDS011;62025;39.238;9.126;2022-11-15T13:20:26;14.75;;;6.72;;
63046;SDS011;62025;39.238;9.126;2022-11-15T13:33:37;13.13;;;6.10;;
63046;SDS011;62025;39.238;9.126;2022-11-15T13:41:32;13.80;;;6.63;;
63046;SDS011;62025;39.238;9.126;2022-11-15T13:44:01;12.27;;;5.60;;
63046;SDS011;62025;39.238;9.126;2022-11-15T13:46:29;13.07;;;5.70;;
63046;SDS011;62025;39.238;9.126;2022-11-15T13:49:04;12.98;;;5.82;;
63046;SDS011;62025;39.238;9.126;2022-11-15T13:51:39;13.80;;;6.32;;
63046;SDS011;62025;39.238;9.126;2022-11-15T13:54:38;12.82;;;5.90;;
63046;SDS011;62025;39.238;9.126;2022-11-15T13:59:57;13.77;;;6.53;;
63046;SDS011;62025;39.238;9.126;2022-11-15T14:02:37;7.97;;;5.10;;
63046;SDS011;62025;39.238;9.126;2022-11-15T14:05:17;14.13;;;5.97;;
63046;SDS011;62025;39.238;9.126;2022-11-15T14:07:52;18.00;;;6.07;;
63046;SDS011;62025;39.238;9.126;2022-11-15T14:10:25;11.13;;;6.05;;
63046;SDS011;62025;39.238;9.126;2022-11-15T14:12:58;14.55;;;6.13;;
63046;SDS011;62025;39.238;9.126;2022-11-15T14:15:30;11.40;;;5.75;;
63046;SDS011;62025;39.238;9.126;2022-11-15T14:17:59;9.88;;;5.78;;
63046;SDS011;62025;39.238;9.126;2022-11-15T14:20:29;11.65;;;5.97;;
63046;SDS011;62025;39.238;9.126;2022-11-15T14:23:26;9.80;;;5.97;;
63046;SDS011;62025;39.238;9.126;2022-11-15T14:25:54;9.40;;;5.97;;
63046;SDS011;62025;39.238;9.126;2022-11-15T14:30:49;12.70;;;5.97;;
63046;SDS011;62025;39.238;9.126;2022-11-15T14:33:25;13.90;;;6.03;;
63046;SDS011;62025;39.238;9.126;2022-11-15T14:41:04;13.63;;;5.32;;
63046;SDS011;62025;39.238;9.126;2022-11-15T14:43:31;10.07;;;5.88;;
63046;SDS011;62025;39.238;9.126;2022-11-15T14:45:57;8.32;;;5.65;;
63046;SDS011;62025;39.238;9.126;2022-11-15T14:48:23;14.93;;;5.93;;
63046;SDS011;62025;39.238;9.126;2022-11-15T14:50:49;10.82;;;5.85;;
63046;SDS011;62025;39.238;9.126;2022-11-15T14:53:16;14.82;;;5.72;;
63046;SDS011;62025;39.238;9.126;2022-11-15T14:55:43;12.57;;;5.67;;
63046;SDS011;62025;39.238;9.126;2022-11-15T14:58:09;12.07;;;5.55;;
63046;SDS011;62025;39.238;9.126;2022-11-15T15:00:36;14.90;;;5.45;;
63046;SDS011;62025;39.238;9.126;2022-11-15T15:03:04;16.45;;;5.95;;
63046;SDS011;62025;39.238;9.126;2022-11-15T15:05:38;18.10;;;6.13;;
63046;SDS011;62025;39.238;9.126;2022-11-15T15:08:09;14.95;;;5.97;;
63046;SDS011;62025;39.238;9.126;2022-11-15T15:10:37;20.50;;;7.00;;
63046;SDS011;62025;39.238;9.126;2022-11-15T15:13:16;10.73;;;5.30;;
63046;SDS011;62025;39.238;9.126;2022-11-15T15:15:48;9.45;;;5.07;;
63046;SDS011;62025;39.238;9.126;2022-11-15T15:18:16;12.05;;;5.32;;
63046;SDS011;62025;39.238;9.126;2022-11-15T15:20:43;13.35;;;5.53;;
63046;SDS011;62025;39.238;9.126;2022-11-15T15:23:15;9.68;;;5.53;;
63046;SDS011;62025;39.238;9.126;2022-11-15T15:25:46;10.20;;;5.60;;
63046;SDS011;62025;39.238;9.126;2022-11-15T15:28:14;12.90;;;6.18;;
63046;SDS011;62025;39.238;9.126;2022-11-15T15:30:40;13.60;;;5.47;;
63046;SDS011;62025;39.238;9.126;2022-11-15T15:33:07;9.45;;;5.53;;
63046;SDS011;62025;39.238;9.126;2022-11-15T15:35:33;18.05;;;5.90;;
63046;SDS011;62025;39.238;9.126;2022-11-15T15:38:00;10.68;;;5.80;;
63046;SDS011;62025;39.238;9.126;2022-11-15T15:40:28;11.43;;;6.60;;
63046;SDS011;62025;39.238;9.126;2022-11-15T15:42:57;9.45;;;6.00;;
63046;SDS011;62025;39.238;9.126;2022-11-15T15:45:24;13.77;;;5.95;;
63046;SDS011;62025;39.238;9.126;2022-11-15T15:47:52;12.50;;;5.97;;
63046;SDS011;62025;39.238;9.126;2022-11-15T15:50:26;10.25;;;5.25;;
63046;SDS011;62025;39.238;9.126;2022-11-15T15:52:58;12.43;;;5.82;;
63046;SDS011;62025;39.238;9.126;2022-11-15T15:55:27;12.70;;;5.43;;
63046;SDS011;62025;39.238;9.126;2022-11-15T15:57:53;14.05;;;7.03;;
63046;SDS011;62025;39.238;9.126;2022-11-15T16:00:21;12.10;;;6.75;;
63046;SDS011;62025;39.238;9.126;2022-11-15T16:02:50;11.43;;;6.55;;
63046;SDS011;62025;39.238;9.126;2022-11-15T16:05:17;10.40;;;6.47;;
63046;SDS011;62025;39.238;9.126;2022-11-15T16:07:43;13.20;;;6.47;;
63046;SDS011;62025;39.238;9.126;2022-11-15T16:12:46;12.18;;;6.40;;
63046;SDS011;62025;39.238;9.126;2022-11-15T16:15:13;14.85;;;6.70;;
63046;SDS011;62025;39.238;9.126;2022-11-15T16:17:53;13.27;;;7.38;;
63046;SDS011;62025;39.238;9.126;2022-11-15T16:20:23;14.02;;;7.40;;
63046;SDS011;62025;39.238;9.126;2022-11-15T16:23:21;17.42;;;7.55;;
63046;SDS011;62025;39.238;9.126;2022-11-15T16:31:03;12.68;;;6.60;;
63046;SDS011;62025;39.238;9.126;2022-11-15T16:33:34;16.95;;;6.78;;
63046;SDS011;62025;39.238;9.126;2022-11-15T16:36:01;11.20;;;6.28;;
63046;SDS011;62025;39.238;9.126;2022-11-15T16:38:28;10.07;;;6.65;;
63046;SDS011;62025;39.238;9.126;2022-11-15T16:40:55;11.57;;;6.57;;
63046;SDS011;62025;39.238;9.126;2022-11-15T16:43:21;14.27;;;6.65;;
63046;SDS011;62025;39.238;9.126;2022-11-15T16:45:47;11.50;;;6.85;;
63046;SDS011;62025;39.238;9.126;2022-11-15T16:48:25;13.80;;;6.60;;
63046;SDS011;62025;39.238;9.126;2022-11-15T16:50:56;15.40;;;6.50;;
63046;SDS011;62025;39.238;9.126;2022-11-15T16:53:26;12.73;;;6.80;;
63046;SDS011;62025;39.238;9.126;2022-11-15T16:55:53;16.35;;;7.57;;
63046;SDS011;62025;39.238;9.126;2022-11-15T16:58:20;10.57;;;6.97;;
63046;SDS011;62025;39.238;9.126;2022-11-15T17:00:53;19.02;;;7.82;;
63046;SDS011;62025;39.238;9.126;2022-11-15T17:03:21;16.55;;;10.73;;
63046;SDS011;62025;39.238;9.126;2022-11-15T17:05:48;21.13;;;9.85;;
63046;SDS011;62025;39.238;9.126;2022-11-15T17:08:15;15.50;;;10.40;;
63046;SDS011;62025;39.238;9.126;2022-11-15T17:10:41;19.63;;;10.80;;
63046;SDS011;62025;39.238;9.126;2022-11-15T17:13:10;17.70;;;10.60;;
63046;SDS011;62025;39.238;9.126;2022-11-15T17:15:38;18.65;;;10.88;;
63046;SDS011;62025;39.238;9.126;2022-11-15T17:18:04;16.25;;;10.30;;
63046;SDS011;62025;39.238;9.126;2022-11-15T17:20:31;19.25;;;11.30;;
63046;SDS011;62025;39.238;9.126;2022-11-15T17:22:57;22.77;;;11.55;;
63046;SDS011;62025;39.238;9.126;2022-11-15T17:25:23;17.23;;;11.02;;
63046;SDS011;62025;39.238;9.126;2022-11-15T17:27:49;22.10;;;9.50;;
63046;SDS011;62025;39.238;9.126;2022-11-15T17:30:15;21.20;;;9.40;;
63046;SDS011;62025;39.238;9.126;2022-11-15T17:32:42;15.63;;;8.60;;
63046;SDS011;62025;39.238;9.126;2022-11-15T17:35:09;15.18;;;9.10;;
63046;SDS011;62025;39.238;9.126;2022-11-15T17:37:39;15.98;;;9.48;;
63046;SDS011;62025;39.238;9.126;2022-11-15T17:40:05;20.45;;;9.27;;
63046;SDS011;62025;39.238;9.126;2022-11-15T17:42:32;19.52;;;10.10;;
63046;SDS011;62025;39.238;9.126;2022-11-15T17:44:58;16.13;;;10.00;;
63046;SDS011;62025;39.238;9.126;2022-11-15T17:47:24;19.83;;;10.07;;
63046;SDS011;62025;39.238;9.126;2022-11-15T17:49:50;21.58;;;10.05;;
63046;SDS011;62025;39.238;9.126;2022-11-15T17:52:16;17.88;;;11.60;;
63046;SDS011;62025;39.238;9.126;2022-11-15T17:54:42;18.38;;;11.80;;
63046;SDS011;62025;39.238;9.126;2022-11-15T17:57:08;16.67;;;10.00;;
63046;SDS011;62025;39.238;9.126;2022-11-15T17:59:35;19.92;;;10.60;;
63046;SDS011;62025;39.238;9.126;2022-11-15T18:02:01;22.80;;;10.43;;
63046;SDS011;62025;39.238;9.126;2022-11-15T18:04:26;22.25;;;10.18;;
63046;SDS011;62025;39.238;9.126;2022-11-15T18:06:53;18.30;;;10.27;;
63046;SDS011;62025;39.238;9.126;2022-11-15T18:09:20;19.15;;;11.25;;
63046;SDS011;62025;39.238;9.126;2022-11-15T18:11:46;20.63;;;10.70;;
63046;SDS011;62025;39.238;9.126;2022-11-15T18:14:16;18.27;;;11.27;;
63046;SDS011;62025;39.238;9.126;2022-11-15T18:16:43;16.38;;;11.10;;
63046;SDS011;62025;39.238;9.126;2022-11-15T18:19:09;23.45;;;11.38;;
63046;SDS011;62025;39.238;9.126;2022-11-15T18:21:38;18.88;;;11.00;;
63046;SDS011;62025;39.238;9.126;2022-11-15T18:24:22;22.60;;;12.77;;
63046;SDS011;62025;39.238;9.126;2022-11-15T18:26:59;24.13;;;14.38;;
63046;SDS011;62025;39.238;9.126;2022-11-15T18:29:28;22.60;;;13.07;;
63046;SDS011;62025;39.238;9.126;2022-11-15T18:31:54;24.30;;;12.75;;
63046;SDS011;62025;39.238;9.126;2022-11-15T18:34:21;30.65;;;13.80;;
63046;SDS011;62025;39.238;9.126;2022-11-15T18:36:50;26.13;;;14.30;;
63046;SDS011;62025;39.238;9.126;2022-11-15T18:39:17;28.35;;;17.55;;
63046;SDS011;62025;39.238;9.126;2022-11-15T18:41:43;28.77;;;16.90;;
63046;SDS011;62025;39.238;9.126;2022-11-15T18:44:13;25.08;;;16.55;;
63046;SDS011;62025;39.238;9.126;2022-11-15T18:46:40;25.23;;;15.52;;